Startpagina
METAR-TAF:

METAR-TAF

Vliegvelden :

Teheran, Iran

Teheran Mehrabad International Airport

breedte: 35-41N, lengte: 051-21E, hoogte: 1204 m

Actueel weer

Dit bericht is 21 minuten geleden gemaakt, om 21:30 UTC
Wind 4 kt uit het noordwesten
Temperatuur 4°C
Vochtigheid 48%
Druk 1016 hPa
Zicht 10 km of meer
geen wolken onder 1500 m en geen cumulonimbus

METAR: OIII 182130Z 32004KT CAVOK 04/M06 Q1016 A3000

Tijdstip: 01:21 (21:51 UTC)

Verwachting

Dit bericht is 4 uur en het 51 minuten geleden gemaakt, om 17:00 UTC
Verwachting geldig van 18 om 18 UTC tot 19 om 24 UTC
Wind 8 kt uit het westnoordwesten
Zicht: 7000 m
Weinig wolken op 3500 ft
Tijdelijke
van 19 om 15 UTC tot 19 om 21 UTC
Wind 16 kt uit het oostzuidoosten

TAF: OIII 181700Z 1818/1924 30004MPS 7000 FEW035 TEMPO 1915/1921 12008MPS

Waarnemingen en weersverwachtingen van meer dan 4000 vliegvelden (METAR en TAF).

De beschikbare stations zijn de gele en rode punten op de kaart.

Ga met uw muis naar het station om de naam te zien.

Klik dan om waarnemingen en weersverwachtingen te zien.

kaart wijzigen: klik op de groene knoppen met een zwart kruis om in te zoomen, op de groene knop met een streepje om uit te zoomen of op de groene pijlen voor aangrenzende kaarten.


METAR-TAF: